createdAt,value
2022-08-17T00:01:32.810Z,55.52
2022-08-17T00:04:19.081Z,55.79
2022-08-17T00:06:46.073Z,55.67
2022-08-17T00:09:18.852Z,55.39
2022-08-17T00:12:43.178Z,55.33
2022-08-17T00:14:36.153Z,55.34
2022-08-17T00:17:04.632Z,55.82
2022-08-17T00:19:32.665Z,55.72
2022-08-17T00:22:30.909Z,56.02
2022-08-17T00:24:49.589Z,56.41
2022-08-17T00:27:16.179Z,56.38
2022-08-17T00:29:42.733Z,56.44
2022-08-17T00:33:15.777Z,57.08
2022-08-17T00:34:55.757Z,56.92
2022-08-17T00:37:22.283Z,57.04
2022-08-17T00:39:48.937Z,57.02
2022-08-17T00:42:18.442Z,57.13
2022-08-17T00:44:45.889Z,57.28
2022-08-17T00:47:12.544Z,57.21
2022-08-17T00:49:39.077Z,57.12
2022-08-17T00:52:15.333Z,57.04
2022-08-17T00:54:44.865Z,57.76
2022-08-17T00:57:17.717Z,59.22
2022-08-17T00:59:47.198Z,58.25
2022-08-17T01:02:35.014Z,58.88
2022-08-17T01:05:15.093Z,60.37
2022-08-17T01:07:42.797Z,61.55
2022-08-17T01:10:58.125Z,60.64
2022-08-17T01:13:02.468Z,60.96
2022-08-17T01:15:36.380Z,60.96
2022-08-17T01:18:05.448Z,60.47
2022-08-17T01:20:32.512Z,59.57
2022-08-17T01:23:18.595Z,59.24
2022-08-17T01:25:52.323Z,61.35
2022-08-17T01:28:52.425Z,62.68
2022-08-17T01:31:08.303Z,61.14
2022-08-17T01:33:35.507Z,62.06
2022-08-17T01:36:03.592Z,60.76
2022-08-17T01:38:31.813Z,62.09
2022-08-17T01:41:06.420Z,63.12
2022-08-17T01:43:39.758Z,62.46
2022-08-17T01:46:06.392Z,61.79
2022-08-17T01:48:34.690Z,60.93
2022-08-17T01:51:01.771Z,63.17
2022-08-17T01:53:34.402Z,62.52
2022-08-17T01:56:11.237Z,63.77
2022-08-17T01:58:38.725Z,62.34
2022-08-17T02:01:07.280Z,61.88
2022-08-17T02:03:34.894Z,62.00
2022-08-17T02:06:02.492Z,64.50
2022-08-17T02:08:38.761Z,62.30
2022-08-17T02:11:12.049Z,63.06
2022-08-17T02:13:39.092Z,62.22
2022-08-17T02:16:05.805Z,62.47
2022-08-17T02:18:32.741Z,62.40
2022-08-17T02:20:59.681Z,62.62
2022-08-17T02:23:30.150Z,63.11
2022-08-17T02:25:59.954Z,64.22
2022-08-17T02:28:28.465Z,64.67
2022-08-17T02:31:00.719Z,64.43
2022-08-17T02:33:42.475Z,64.62
2022-08-17T02:36:11.340Z,65.04
2022-08-17T02:38:38.762Z,66.04
2022-08-17T02:41:05.506Z,65.94
2022-08-17T02:43:32.065Z,65.84
2022-08-17T02:45:58.579Z,65.90
2022-08-17T02:48:31.247Z,63.91
2022-08-17T02:50:58.956Z,65.57
2022-08-17T02:53:25.865Z,65.64
2022-08-17T02:55:53.189Z,65.14
2022-08-17T02:58:35.535Z,64.77
2022-08-17T03:01:05.105Z,64.31
2022-08-17T03:03:32.208Z,63.48
2022-08-17T03:05:58.710Z,63.93
2022-08-17T03:08:25.533Z,62.92
2022-08-17T03:10:52.172Z,62.83
2022-08-17T03:13:18.851Z,62.53
2022-08-17T03:15:47.219Z,62.46
2022-08-17T03:18:25.001Z,62.48
2022-08-17T03:20:55.304Z,62.02
2022-08-17T03:23:24.104Z,62.26
2022-08-17T03:25:52.821Z,62.49
2022-08-17T03:28:19.776Z,62.86
2022-08-17T03:30:46.396Z,63.01
2022-08-17T03:33:13.741Z,62.58
2022-08-17T03:35:41.057Z,62.48
2022-08-17T03:38:10.455Z,62.14
2022-08-17T03:40:57.101Z,62.41
2022-08-17T03:43:23.939Z,62.84
2022-08-17T03:46:23.714Z,62.85
2022-08-17T03:49:13.277Z,63.27
2022-08-17T03:51:58.175Z,63.26
2022-08-17T03:54:43.153Z,63.85
2022-08-17T03:57:11.274Z,63.50
2022-08-17T03:59:39.046Z,63.94
2022-08-17T04:02:28.523Z,63.92
2022-08-17T04:04:55.088Z,63.50
2022-08-17T04:07:24.118Z,63.13
2022-08-17T04:09:51.095Z,62.61
2022-08-17T04:12:19.777Z,61.75
2022-08-17T04:14:53.445Z,62.19
2022-08-17T04:17:27.160Z,61.89
2022-08-17T04:19:55.252Z,61.72
2022-08-17T04:22:30.531Z,62.05
2022-08-17T04:25:01.479Z,62.50
2022-08-17T04:27:28.024Z,62.86
2022-08-17T04:29:55.984Z,62.31
2022-08-17T04:33:04.386Z,61.98
2022-08-17T04:35:10.202Z,61.55
2022-08-17T04:37:36.692Z,61.33
2022-08-17T04:40:22.582Z,61.57
2022-08-17T04:43:20.393Z,61.31
2022-08-17T04:45:55.477Z,61.47
2022-08-17T04:48:29.702Z,61.55
2022-08-17T04:51:05.779Z,61.10
2022-08-17T04:53:32.603Z,61.25
2022-08-17T04:55:59.188Z,60.71
2022-08-17T04:58:25.960Z,61.06
2022-08-17T05:00:52.730Z,61.43
2022-08-17T05:03:19.269Z,61.24
2022-08-17T05:05:49.762Z,60.77
2022-08-17T05:08:19.232Z,60.97
2022-08-17T05:10:46.908Z,60.56
2022-08-17T05:13:17.794Z,61.04
2022-08-17T05:15:47.720Z,60.90
2022-08-17T05:18:15.709Z,60.28
2022-08-17T05:20:43.496Z,60.29
2022-08-17T05:23:12.849Z,62.43
2022-08-17T05:25:47.746Z,62.47
2022-08-17T05:28:16.359Z,62.28
2022-08-17T05:30:44.720Z,62.69
2022-08-17T05:33:21.836Z,61.11
2022-08-17T05:35:51.666Z,61.06
2022-08-17T05:38:19.698Z,61.22
2022-08-17T05:40:46.989Z,60.90
2022-08-17T05:43:17.488Z,60.69
2022-08-17T05:45:59.207Z,61.30
2022-08-17T05:48:35.613Z,61.56
2022-08-17T05:51:32.967Z,61.51
2022-08-17T05:54:17.850Z,61.54
2022-08-17T05:56:50.491Z,61.15
2022-08-17T06:00:03.544Z,60.93
2022-08-17T06:03:06.586Z,60.56
2022-08-17T06:05:42.262Z,60.30
2022-08-17T06:08:18.101Z,60.04
2022-08-17T06:11:06.899Z,59.81
2022-08-17T06:13:36.436Z,59.51
2022-08-17T06:16:28.209Z,59.68
2022-08-17T06:19:06.449Z,59.29
2022-08-17T06:21:39.455Z,59.34
2022-08-17T06:24:23.667Z,59.09
2022-08-17T06:26:52.281Z,59.34
2022-08-17T06:29:35.385Z,59.07
2022-08-17T06:32:03.293Z,59.58
2022-08-17T06:34:29.941Z,59.64
2022-08-17T06:37:03.740Z,59.45
2022-08-17T06:39:39.229Z,58.96
2022-08-17T06:43:04.105Z,58.88
2022-08-17T06:45:20.115Z,59.13
2022-08-17T06:47:53.071Z,60.43
2022-08-17T06:50:29.139Z,60.73
2022-08-17T06:53:28.361Z,60.70
2022-08-17T06:56:13.970Z,60.76
2022-08-17T06:58:43.317Z,59.61
2022-08-17T07:01:18.151Z,60.22
2022-08-17T07:03:54.766Z,59.87
2022-08-17T07:06:38.073Z,59.52
2022-08-17T07:09:14.633Z,60.08
2022-08-17T07:11:50.724Z,59.74
2022-08-17T07:14:39.072Z,59.55
2022-08-17T07:17:15.605Z,59.67
2022-08-17T07:19:45.489Z,59.28
2022-08-17T07:22:57.351Z,59.87
2022-08-17T07:25:21.389Z,59.44
2022-08-17T07:27:51.441Z,59.56
2022-08-17T07:30:22.770Z,59.32
2022-08-17T07:35:23.052Z,59.29
2022-08-17T07:38:24.989Z,59.47
2022-08-17T07:41:05.944Z,59.38
2022-08-17T07:43:46.092Z,59.37
2022-08-17T07:46:38.023Z,59.67
2022-08-17T07:49:07.398Z,59.53
2022-08-17T07:51:55.419Z,59.39
2022-08-17T07:54:29.513Z,59.66
2022-08-17T07:57:00.301Z,60.53
2022-08-17T08:00:02.180Z,60.36
2022-08-17T08:02:40.221Z,60.54
2022-08-17T08:05:12.857Z,60.13
2022-08-17T08:08:01.579Z,60.01
2022-08-17T08:10:35.681Z,59.77
2022-08-17T08:13:15.485Z,60.12
2022-08-17T08:15:53.600Z,59.70
2022-08-17T08:18:53.438Z,59.13
2022-08-17T08:21:33.240Z,59.23
2022-08-17T08:24:21.764Z,59.40
2022-08-17T08:27:07.269Z,59.08
2022-08-17T08:29:46.213Z,58.69
2022-08-17T08:32:25.036Z,58.93
2022-08-17T08:35:07.330Z,58.81
2022-08-17T08:37:55.684Z,58.90
2022-08-17T08:40:56.101Z,59.63
2022-08-17T08:43:38.079Z,60.27
2022-08-17T08:46:37.042Z,61.15
2022-08-17T08:49:12.824Z,61.00
2022-08-17T08:51:53.358Z,61.25
2022-08-17T08:54:41.299Z,61.08
2022-08-17T08:57:34.311Z,61.87
2022-08-17T09:00:09.107Z,61.98
2022-08-17T09:02:57.041Z,61.22
2022-08-17T09:05:41.248Z,61.36
2022-08-17T09:08:32.301Z,60.92
2022-08-17T09:11:12.694Z,61.55
2022-08-17T09:13:46.877Z,61.44
2022-08-17T09:16:33.239Z,61.11
2022-08-17T09:19:17.247Z,61.18
2022-08-17T09:21:58.450Z,61.20
2022-08-17T09:24:40.120Z,61.95
2022-08-17T09:27:14.181Z,62.17
2022-08-17T09:29:49.149Z,62.37
2022-08-17T09:32:40.693Z,62.80
2022-08-17T09:35:22.756Z,62.90
2022-08-17T09:38:19.364Z,62.63
2022-08-17T09:40:57.314Z,62.92
2022-08-17T09:43:43.786Z,63.31
2022-08-17T09:46:30.705Z,63.32
2022-08-17T09:49:06.440Z,63.25
2022-08-17T09:51:40.178Z,63.25
2022-08-17T09:54:38.135Z,63.21
2022-08-17T09:57:30.327Z,63.45
2022-08-17T10:00:16.691Z,63.07
2022-08-17T10:03:16.791Z,63.70
2022-08-17T10:05:59.400Z,64.46
2022-08-17T10:09:08.290Z,66.24
2022-08-17T10:12:30.268Z,68.14
2022-08-17T10:15:09.347Z,71.46
2022-08-17T10:17:45.288Z,71.16
2022-08-17T10:20:34.037Z,71.56
2022-08-17T10:23:21.649Z,72.18
2022-08-17T10:26:04.506Z,72.53
2022-08-17T10:28:47.787Z,73.89
2022-08-17T10:31:40.067Z,74.69
2022-08-17T10:34:27.824Z,75.19
2022-08-17T10:37:24.748Z,73.83
2022-08-17T10:40:19.022Z,73.29
2022-08-17T10:43:10.217Z,72.69
2022-08-17T10:45:48.622Z,73.30
2022-08-17T10:48:38.268Z,71.79
2022-08-17T10:51:09.262Z,74.53
2022-08-17T10:53:35.691Z,74.77
2022-08-17T10:56:13.938Z,74.33
2022-08-17T10:58:49.678Z,73.01
2022-08-17T11:01:17.965Z,72.06
2022-08-17T11:03:55.857Z,73.67
2022-08-17T11:06:31.086Z,71.61
2022-08-17T11:09:28.710Z,73.46
2022-08-17T11:12:33.758Z,72.12
2022-08-17T11:15:27.813Z,73.12
2022-08-17T11:17:58.157Z,71.49
2022-08-17T11:20:38.707Z,72.95
2022-08-17T11:23:32.510Z,73.78
2022-08-17T11:26:08.578Z,72.38
2022-08-17T11:28:48.851Z,73.58
2022-08-17T11:31:38.498Z,74.63
2022-08-17T11:34:26.466Z,74.92
2022-08-17T11:37:17.690Z,75.71
2022-08-17T11:40:35.693Z,74.85
2022-08-17T11:43:28.372Z,74.50
2022-08-17T11:46:07.259Z,74.73
2022-08-17T11:49:26.475Z,74.29
2022-08-17T11:52:01.824Z,73.50
2022-08-17T11:54:33.823Z,73.86
2022-08-17T11:57:26.573Z,73.71
2022-08-17T12:00:00.984Z,72.67
2022-08-17T12:02:35.062Z,72.56
2022-08-17T12:05:27.247Z,73.88
2022-08-17T12:07:56.552Z,73.76
2022-08-17T12:10:32.581Z,72.65
2022-08-17T12:13:05.291Z,72.12
2022-08-17T12:15:37.341Z,72.56
2022-08-17T12:18:04.269Z,73.24
2022-08-17T12:20:38.237Z,73.40
2022-08-17T12:23:33.791Z,72.22
2022-08-17T12:26:20.846Z,71.93
2022-08-17T12:28:51.773Z,70.73
2022-08-17T12:31:49.136Z,70.34
2022-08-17T12:34:26.594Z,70.12
2022-08-17T12:36:59.882Z,69.27
2022-08-17T12:39:27.858Z,68.58
2022-08-17T12:42:02.785Z,68.20
2022-08-17T12:44:33.487Z,68.18
2022-08-17T12:47:07.605Z,68.02
2022-08-17T12:49:37.203Z,67.74
2022-08-17T12:52:11.089Z,68.50
2022-08-17T12:54:40.324Z,68.45
2022-08-17T12:57:13.411Z,67.59
2022-08-17T12:59:46.449Z,67.37
2022-08-17T13:02:51.087Z,67.68
2022-08-17T13:05:36.137Z,67.32
2022-08-17T13:08:13.589Z,68.13
2022-08-17T13:10:40.927Z,67.95
2022-08-17T13:13:21.880Z,67.58
2022-08-17T13:16:00.760Z,67.11
2022-08-17T13:18:39.010Z,65.83
2022-08-17T13:21:30.362Z,64.93
2022-08-17T13:24:22.086Z,64.36
2022-08-17T13:27:07.986Z,64.68
2022-08-17T13:29:39.398Z,64.21
2022-08-17T13:32:13.000Z,63.84
2022-08-17T13:35:08.325Z,63.01
2022-08-17T13:37:36.180Z,62.87
2022-08-17T13:40:09.021Z,62.69
2022-08-17T13:42:53.134Z,63.30
2022-08-17T13:45:36.246Z,62.67
2022-08-17T13:48:14.504Z,62.93
2022-08-17T13:50:55.233Z,63.00
2022-08-17T13:53:34.241Z,62.85
2022-08-17T13:56:37.020Z,63.03
2022-08-17T13:59:12.482Z,62.84
2022-08-17T14:01:53.362Z,62.80
2022-08-17T14:04:25.117Z,62.62
2022-08-17T14:07:03.655Z,63.04
2022-08-17T14:09:39.971Z,62.52
2022-08-17T14:12:10.694Z,62.35
2022-08-17T14:14:38.118Z,62.13
2022-08-17T14:17:05.494Z,62.34
2022-08-17T14:19:36.037Z,62.31
2022-08-17T14:22:03.817Z,62.21
2022-08-17T14:24:41.233Z,61.96
2022-08-17T14:27:10.613Z,62.08
2022-08-17T14:29:37.114Z,61.35
2022-08-17T14:32:16.493Z,61.55
2022-08-17T14:34:43.122Z,60.88
2022-08-17T14:37:09.909Z,61.64
2022-08-17T14:39:36.640Z,60.31
2022-08-17T14:42:03.664Z,60.29
2022-08-17T14:44:30.254Z,60.54
2022-08-17T14:46:56.815Z,60.05
2022-08-17T14:49:23.880Z,60.67
2022-08-17T14:51:51.247Z,60.49
2022-08-17T14:54:33.868Z,60.13
2022-08-17T14:57:22.722Z,59.25
2022-08-17T14:59:54.593Z,59.86
2022-08-17T15:02:29.544Z,58.10
2022-08-17T15:05:03.558Z,58.23
2022-08-17T15:07:30.413Z,58.25
2022-08-17T15:09:58.690Z,56.84
2022-08-17T15:12:32.081Z,57.17
2022-08-17T15:15:00.698Z,56.40
2022-08-17T15:17:27.567Z,55.37
2022-08-17T15:20:17.874Z,54.80
2022-08-17T15:22:46.443Z,54.03
2022-08-17T15:25:13.652Z,53.45
2022-08-17T15:27:40.509Z,52.66
2022-08-17T15:30:08.552Z,52.11
2022-08-17T15:32:38.301Z,52.73
2022-08-17T15:35:07.783Z,53.38
2022-08-17T15:37:36.400Z,53.95
2022-08-17T15:40:04.041Z,53.39
2022-08-17T15:42:30.981Z,53.50
2022-08-17T15:44:57.649Z,53.70
2022-08-17T15:47:24.223Z,52.58
2022-08-17T15:49:50.933Z,52.96
2022-08-17T15:52:29.842Z,51.95
2022-08-17T15:54:59.622Z,52.35
2022-08-17T15:57:27.374Z,51.47
2022-08-17T15:59:58.580Z,52.63
2022-08-17T16:03:14.688Z,51.70
2022-08-17T16:05:19.862Z,52.34
2022-08-17T16:07:47.051Z,52.47
2022-08-17T16:10:18.808Z,52.48
2022-08-17T16:12:47.861Z,51.91
2022-08-17T16:15:16.234Z,50.27
2022-08-17T16:17:42.982Z,49.67
2022-08-17T16:20:19.960Z,49.55
2022-08-17T16:22:49.141Z,51.15
2022-08-17T16:25:22.273Z,51.25
2022-08-17T16:27:53.379Z,51.25
2022-08-17T16:30:23.332Z,51.20
2022-08-17T16:32:54.006Z,51.42
2022-08-17T16:35:25.062Z,52.36
2022-08-17T16:37:56.202Z,52.04
2022-08-17T16:40:26.902Z,51.86
2022-08-17T16:42:53.919Z,52.76
2022-08-17T16:45:25.935Z,52.51
2022-08-17T16:47:54.679Z,52.94
2022-08-17T16:50:23.477Z,53.32
2022-08-17T16:52:51.150Z,53.04
2022-08-17T16:55:21.918Z,52.07
2022-08-17T16:57:50.193Z,52.12
2022-08-17T17:00:18.338Z,52.04
2022-08-17T17:02:47.377Z,51.85
2022-08-17T17:05:13.930Z,52.19
2022-08-17T17:08:03.198Z,52.34
2022-08-17T17:10:41.937Z,52.65
2022-08-17T17:13:17.084Z,52.34
2022-08-17T17:16:06.917Z,52.31
2022-08-17T17:18:41.182Z,52.16
2022-08-17T17:21:17.536Z,52.66
2022-08-17T17:23:56.143Z,53.33
2022-08-17T17:26:50.470Z,54.41
2022-08-17T17:29:28.999Z,55.32
2022-08-17T17:32:24.723Z,54.89
2022-08-17T17:34:59.713Z,54.67
2022-08-17T17:37:33.898Z,55.05
2022-08-17T17:40:06.607Z,55.07
2022-08-17T17:42:33.990Z,55.09
2022-08-17T17:45:12.190Z,55.37
2022-08-17T17:47:39.035Z,54.94
2022-08-17T17:50:07.609Z,55.54
2022-08-17T17:53:02.146Z,55.91
2022-08-17T17:55:32.883Z,55.58
2022-08-17T17:58:13.700Z,55.35
2022-08-17T18:00:52.699Z,55.14
2022-08-17T18:03:51.779Z,55.00
2022-08-17T18:06:18.756Z,54.83
2022-08-17T18:09:04.539Z,54.67
2022-08-17T18:11:51.501Z,54.58
2022-08-17T18:14:39.492Z,54.29
2022-08-17T18:17:06.810Z,54.93
2022-08-17T18:19:33.514Z,54.56
2022-08-17T18:22:14.194Z,54.75
2022-08-17T18:24:44.991Z,55.10
2022-08-17T18:27:29.106Z,55.29
2022-08-17T18:29:58.119Z,54.99
2022-08-17T18:32:29.662Z,55.36
2022-08-17T18:35:02.757Z,55.56
2022-08-17T18:37:48.388Z,55.84
2022-08-17T18:40:18.417Z,55.92
2022-08-17T18:43:03.072Z,56.78
2022-08-17T18:45:34.415Z,56.16
2022-08-17T18:48:01.703Z,56.49
2022-08-17T18:50:36.580Z,57.07
2022-08-17T18:53:26.826Z,57.69
2022-08-17T18:56:24.651Z,57.69
2022-08-17T18:59:10.993Z,57.54
2022-08-17T19:01:52.474Z,57.09
2022-08-17T19:05:01.956Z,58.03
2022-08-17T19:07:34.566Z,57.99
2022-08-17T19:10:04.114Z,58.84
2022-08-17T19:12:47.174Z,59.42
2022-08-17T19:15:19.100Z,59.52
2022-08-17T19:18:03.553Z,60.02
2022-08-17T19:20:41.655Z,60.87
2022-08-17T19:23:23.191Z,60.90
2022-08-17T19:25:53.342Z,61.27
2022-08-17T19:28:23.042Z,62.43
2022-08-17T19:30:54.685Z,60.64
2022-08-17T19:33:21.509Z,60.97
2022-08-17T19:35:57.502Z,62.74
2022-08-17T19:38:35.648Z,62.89
2022-08-17T19:41:02.157Z,61.69
2022-08-17T19:43:28.643Z,62.30
2022-08-17T19:46:18.865Z,64.53
2022-08-17T19:49:04.499Z,64.66
2022-08-17T19:51:57.097Z,65.75
2022-08-17T19:54:34.996Z,65.05
2022-08-17T19:57:27.381Z,65.77
2022-08-17T20:00:02.814Z,65.34
2022-08-17T20:02:44.250Z,66.36
2022-08-17T20:05:25.597Z,66.24
2022-08-17T20:08:07.620Z,66.62
2022-08-17T20:10:45.186Z,65.13
2022-08-17T20:13:33.575Z,67.18
2022-08-17T20:16:01.701Z,66.08
2022-08-17T20:18:34.292Z,68.22
2022-08-17T20:21:20.063Z,67.49
2022-08-17T20:23:59.507Z,67.81
2022-08-17T20:26:49.130Z,69.49
2022-08-17T20:29:37.486Z,68.60
2022-08-17T20:32:17.535Z,68.84
2022-08-17T20:34:47.243Z,67.88
2022-08-17T20:37:14.415Z,68.20
2022-08-17T20:39:50.084Z,70.13
2022-08-17T20:42:19.875Z,70.48
2022-08-17T20:44:48.964Z,70.08
2022-08-17T20:47:27.028Z,70.04
2022-08-17T20:50:08.290Z,70.75
2022-08-17T20:52:56.065Z,70.25
2022-08-17T20:55:51.811Z,70.25
2022-08-17T20:58:30.811Z,68.97
2022-08-17T21:00:57.858Z,69.70
2022-08-17T21:03:24.499Z,69.49
2022-08-17T21:06:02.890Z,71.50
2022-08-17T21:08:54.577Z,71.77
2022-08-17T21:11:56.870Z,70.51
2022-08-17T21:14:46.020Z,69.65
2022-08-17T21:17:24.783Z,72.52
2022-08-17T21:20:10.848Z,72.31
2022-08-17T21:22:38.240Z,71.82
2022-08-17T21:25:26.377Z,74.94
2022-08-17T21:28:01.795Z,72.69
2022-08-17T21:30:28.245Z,71.29
2022-08-17T21:33:17.866Z,73.39
2022-08-17T21:36:12.755Z,74.80
2022-08-17T21:38:55.689Z,73.08
2022-08-17T21:41:33.708Z,72.38
2022-08-17T21:44:13.304Z,73.64
2022-08-17T21:46:43.007Z,72.85
2022-08-17T21:49:16.764Z,72.73
2022-08-17T21:51:56.444Z,73.71
2022-08-17T21:54:35.467Z,72.61
2022-08-17T21:57:05.747Z,72.67
2022-08-17T21:59:37.383Z,73.50
2022-08-17T22:02:07.430Z,73.34
2022-08-17T22:04:35.936Z,72.92
2022-08-17T22:07:09.356Z,73.28
2022-08-17T22:09:43.804Z,73.65
2022-08-17T22:12:15.735Z,72.62
2022-08-17T22:15:01.032Z,73.34
2022-08-17T22:17:37.016Z,77.10
2022-08-17T22:20:33.395Z,77.27
2022-08-17T22:23:18.467Z,74.56
2022-08-17T22:26:02.163Z,75.15
2022-08-17T22:28:46.584Z,77.01
2022-08-17T22:31:16.623Z,75.42
2022-08-17T22:34:03.352Z,76.66
2022-08-17T22:36:36.870Z,75.52
2022-08-17T22:39:09.363Z,76.03
2022-08-17T22:41:48.005Z,75.58
2022-08-17T22:44:17.618Z,74.51
2022-08-17T22:46:57.842Z,75.51
2022-08-17T22:49:29.271Z,74.94
2022-08-17T22:52:04.978Z,77.07
2022-08-17T22:54:50.296Z,75.93
2022-08-17T22:57:36.850Z,76.81
2022-08-17T23:00:05.597Z,76.05
2022-08-17T23:02:34.155Z,75.66
2022-08-17T23:05:13.299Z,78.05
2022-08-17T23:07:40.542Z,75.86
2022-08-17T23:10:10.343Z,76.35
2022-08-17T23:12:38.865Z,76.37
2022-08-17T23:18:05.897Z,76.28
2022-08-17T23:20:35.889Z,78.39
2022-08-17T23:23:06.412Z,78.43
2022-08-17T23:25:35.228Z,78.05
2022-08-17T23:28:05.089Z,81.13
2022-08-17T23:30:35.617Z,82.36
2022-08-17T23:33:07.673Z,83.20
2022-08-17T23:35:40.635Z,80.76
2022-08-17T23:38:12.873Z,80.18
2022-08-17T23:40:40.561Z,84.83
2022-08-17T23:43:23.416Z,86.17
2022-08-17T23:45:58.506Z,84.58
2022-08-17T23:48:34.921Z,85.27
2022-08-17T23:51:05.882Z,85.95
2022-08-17T23:53:34.371Z,82.53
2022-08-17T23:56:03.942Z,81.14
2022-08-17T23:58:38.521Z,83.00
